createdAt,value
2023-01-26T00:01:33.648Z,2.40
2023-01-26T00:04:02.997Z,2.50
2023-01-26T00:06:31.255Z,2.50
2023-01-26T00:09:01.057Z,2.10
2023-01-26T00:11:30.372Z,2.60
2023-01-26T00:14:00.717Z,2.60
2023-01-26T00:16:30.785Z,2.20
2023-01-26T00:19:01.298Z,2.40
2023-01-26T00:21:29.565Z,2.40
2023-01-26T00:23:58.696Z,2.60
2023-01-26T00:26:28.478Z,1.80
2023-01-26T00:28:56.684Z,1.70
2023-01-26T00:31:26.931Z,1.50
2023-01-26T00:33:57.567Z,1.60
2023-01-26T00:36:26.199Z,1.10
2023-01-26T00:38:54.470Z,1.40
2023-01-26T00:41:23.083Z,1.20
2023-01-26T00:43:51.230Z,1.50
2023-01-26T00:46:20.040Z,1.60
2023-01-26T00:48:48.754Z,1.20
2023-01-26T00:51:19.399Z,1.30
2023-01-26T00:53:49.994Z,1.20
2023-01-26T00:56:18.965Z,1.50
2023-01-26T00:58:47.186Z,1.20
2023-01-26T01:01:15.706Z,1.60
2023-01-26T01:03:45.042Z,1.40
2023-01-26T01:06:13.895Z,0.90
2023-01-26T01:08:42.604Z,1.10
2023-01-26T01:11:12.354Z,1.50
2023-01-26T01:13:41.079Z,1.30
2023-01-26T01:16:12.405Z,1.30
2023-01-26T01:18:42.346Z,1.60
2023-01-26T01:21:13.676Z,1.40
2023-01-26T01:23:42.149Z,1.20
2023-01-26T01:26:13.838Z,1.40
2023-01-26T01:28:44.204Z,1.30
2023-01-26T01:31:16.326Z,1.00
2023-01-26T01:33:45.004Z,1.10
2023-01-26T01:36:17.374Z,1.00
2023-01-26T01:38:47.328Z,1.30
2023-01-26T01:41:19.727Z,1.10
2023-01-26T01:43:48.633Z,1.00
2023-01-26T01:46:35.338Z,1.30
2023-01-26T01:49:19.007Z,1.20
2023-01-26T01:52:06.933Z,0.90
2023-01-26T01:54:56.559Z,0.80
2023-01-26T01:57:30.077Z,1.00
2023-01-26T02:00:10.606Z,1.50
2023-01-26T02:02:41.613Z,1.10
2023-01-26T02:05:26.024Z,1.50
2023-01-26T02:07:55.393Z,1.40
2023-01-26T02:10:25.381Z,1.40
2023-01-26T02:12:56.680Z,1.60
2023-01-26T02:15:25.456Z,1.50
2023-01-26T02:17:55.225Z,1.70
2023-01-26T02:20:37.105Z,1.60
2023-01-26T02:23:34.960Z,1.50
2023-01-26T02:26:10.785Z,1.40
2023-01-26T02:28:41.363Z,1.30
2023-01-26T02:31:11.111Z,1.40
2023-01-26T02:33:40.746Z,1.60
2023-01-26T02:36:29.187Z,1.60
2023-01-26T02:39:09.795Z,1.40
2023-01-26T02:41:39.880Z,1.20
2023-01-26T02:44:11.876Z,1.30
2023-01-26T02:46:41.780Z,1.00
2023-01-26T02:49:10.257Z,1.20
2023-01-26T02:51:38.949Z,1.20
2023-01-26T02:54:07.883Z,1.20
2023-01-26T02:56:36.582Z,1.30
2023-01-26T02:59:04.739Z,1.20
2023-01-26T03:01:33.811Z,1.40
2023-01-26T03:04:03.190Z,1.10
2023-01-26T03:06:33.833Z,1.10
2023-01-26T03:09:04.133Z,1.20
2023-01-26T03:11:33.468Z,1.40
2023-01-26T03:14:02.847Z,1.10
2023-01-26T03:16:31.244Z,1.20
2023-01-26T03:19:00.293Z,1.30
2023-01-26T03:21:29.841Z,1.30
2023-01-26T03:23:59.476Z,1.30
2023-01-26T03:26:27.858Z,1.30
2023-01-26T03:28:56.054Z,1.10
2023-01-26T03:31:25.107Z,1.50
2023-01-26T03:33:53.471Z,1.60
2023-01-26T03:36:22.151Z,1.30
2023-01-26T03:38:51.725Z,1.30
2023-01-26T03:41:20.665Z,1.20
2023-01-26T03:43:49.736Z,1.20
2023-01-26T03:46:19.934Z,1.20
2023-01-26T03:48:48.509Z,1.10
2023-01-26T03:51:17.081Z,1.20
2023-01-26T03:53:46.043Z,1.00
2023-01-26T03:56:16.249Z,1.20
2023-01-26T03:58:46.754Z,1.20
2023-01-26T04:01:16.057Z,1.40
2023-01-26T04:03:48.758Z,1.30
2023-01-26T04:06:18.883Z,1.40
2023-01-26T04:08:48.618Z,1.00
2023-01-26T04:11:16.837Z,0.90
2023-01-26T04:13:45.523Z,1.10
2023-01-26T04:16:14.881Z,1.00
2023-01-26T04:18:43.034Z,1.00
2023-01-26T04:21:12.166Z,1.10
2023-01-26T04:23:41.230Z,1.00
2023-01-26T04:26:09.469Z,1.30
2023-01-26T04:28:38.536Z,1.10
2023-01-26T04:31:07.306Z,1.10
2023-01-26T04:33:35.655Z,1.30
2023-01-26T04:36:07.184Z,1.30
2023-01-26T04:38:36.212Z,1.10
2023-01-26T04:41:04.504Z,1.40
2023-01-26T04:43:33.258Z,1.60
2023-01-26T04:46:05.090Z,1.20
2023-01-26T04:48:34.801Z,1.20
2023-01-26T04:51:08.133Z,1.00
2023-01-26T04:53:37.813Z,1.10
2023-01-26T04:56:07.935Z,0.90
2023-01-26T04:58:36.181Z,1.30
2023-01-26T05:01:05.556Z,1.10
2023-01-26T05:03:34.714Z,1.20
2023-01-26T05:06:03.554Z,1.20
2023-01-26T05:08:33.701Z,1.00
2023-01-26T05:11:01.946Z,1.50
2023-01-26T05:13:30.231Z,1.00
2023-01-26T05:15:59.492Z,1.10
2023-01-26T05:18:28.210Z,1.20
2023-01-26T05:20:57.025Z,0.80
2023-01-26T05:23:26.293Z,1.00
2023-01-26T05:25:55.049Z,0.90
2023-01-26T05:28:23.669Z,1.00
2023-01-26T05:30:52.346Z,1.00
2023-01-26T05:33:21.121Z,1.00
2023-01-26T05:35:50.349Z,1.50
2023-01-26T05:38:19.968Z,1.10
2023-01-26T05:40:48.131Z,1.20
2023-01-26T05:43:17.150Z,1.10
2023-01-26T05:45:45.723Z,1.10
2023-01-26T05:48:14.464Z,1.40
2023-01-26T05:50:43.398Z,1.00
2023-01-26T05:53:11.548Z,1.00
2023-01-26T05:55:39.686Z,0.80
2023-01-26T05:58:08.561Z,1.30
2023-01-26T06:00:36.935Z,1.30
2023-01-26T06:03:05.625Z,1.20
2023-01-26T06:05:34.415Z,0.90
2023-01-26T06:08:03.386Z,0.80
2023-01-26T06:10:31.607Z,1.40
2023-01-26T06:13:00.817Z,1.00
2023-01-26T06:15:30.432Z,0.90
2023-01-26T06:18:01.540Z,1.20
2023-01-26T06:20:30.857Z,1.20
2023-01-26T06:23:02.890Z,1.10
2023-01-26T06:25:32.147Z,1.10
2023-01-26T06:28:01.370Z,1.00
2023-01-26T06:30:30.025Z,1.20
2023-01-26T06:33:00.258Z,1.00
2023-01-26T06:35:29.554Z,1.20
2023-01-26T06:37:58.395Z,0.80
2023-01-26T06:40:27.094Z,1.10
2023-01-26T06:42:55.825Z,1.40
2023-01-26T06:45:24.071Z,1.20
2023-01-26T06:47:52.292Z,1.00
2023-01-26T06:50:25.675Z,1.40
2023-01-26T06:53:00.427Z,1.20
2023-01-26T06:55:39.118Z,1.20
2023-01-26T06:58:08.231Z,1.30
2023-01-26T07:00:36.808Z,1.10
2023-01-26T07:03:05.232Z,1.10
2023-01-26T07:05:34.104Z,1.50
2023-01-26T07:08:02.400Z,0.90
2023-01-26T07:10:30.798Z,1.00
2023-01-26T07:12:59.424Z,1.10
2023-01-26T07:15:27.672Z,1.00
2023-01-26T07:17:58.092Z,1.60
2023-01-26T07:20:28.260Z,1.10
2023-01-26T07:22:59.267Z,1.10
2023-01-26T07:25:28.663Z,1.10
2023-01-26T07:27:58.741Z,1.30
2023-01-26T07:30:28.026Z,1.30
2023-01-26T07:33:00.325Z,1.20
2023-01-26T07:35:29.146Z,1.50
2023-01-26T07:37:58.725Z,1.50
2023-01-26T07:40:29.954Z,1.50
2023-01-26T07:42:58.825Z,2.00
2023-01-26T07:45:28.157Z,1.40
2023-01-26T07:47:58.358Z,1.10
2023-01-26T07:50:27.293Z,1.50
2023-01-26T07:52:56.883Z,1.30
2023-01-26T07:55:25.245Z,2.20
2023-01-26T07:57:54.028Z,2.40
2023-01-26T08:00:23.022Z,2.40
2023-01-26T08:02:52.340Z,2.30
2023-01-26T08:05:20.608Z,2.60
2023-01-26T08:07:49.691Z,2.60
2023-01-26T08:10:19.210Z,2.20
2023-01-26T08:12:47.800Z,2.20
2023-01-26T08:15:16.539Z,2.40
2023-01-26T08:17:45.768Z,3.20
2023-01-26T08:20:14.186Z,3.30
2023-01-26T08:22:43.897Z,3.80
2023-01-26T08:25:12.450Z,4.90
2023-01-26T08:27:42.290Z,3.80
2023-01-26T08:30:13.864Z,3.70
2023-01-26T08:32:44.509Z,4.30
2023-01-26T08:35:13.858Z,3.50
2023-01-26T08:37:42.036Z,3.00
2023-01-26T08:40:11.245Z,3.10
2023-01-26T08:42:40.521Z,2.60
2023-01-26T08:45:10.392Z,2.30
2023-01-26T08:47:38.662Z,2.20
2023-01-26T08:50:11.086Z,2.30
2023-01-26T08:52:40.576Z,2.20
2023-01-26T08:55:11.299Z,1.80
2023-01-26T08:57:39.727Z,2.20
2023-01-26T09:00:09.019Z,2.00
2023-01-26T09:02:37.756Z,1.90
2023-01-26T09:05:07.171Z,2.30
2023-01-26T09:07:36.076Z,2.50
2023-01-26T09:10:08.072Z,2.30
2023-01-26T09:12:38.047Z,2.80
2023-01-26T09:15:09.439Z,2.60
2023-01-26T09:17:37.676Z,3.00
2023-01-26T09:20:06.940Z,2.70
2023-01-26T09:22:36.148Z,2.20
2023-01-26T09:25:05.249Z,1.90
2023-01-26T09:27:33.473Z,1.90
2023-01-26T09:30:03.826Z,1.70
2023-01-26T09:32:32.990Z,1.80
2023-01-26T09:35:02.241Z,1.70
2023-01-26T09:37:31.809Z,1.50
2023-01-26T09:40:00.357Z,1.80
2023-01-26T09:42:33.361Z,1.40
2023-01-26T09:45:14.159Z,1.80
2023-01-26T09:48:00.280Z,1.30
2023-01-26T09:50:39.571Z,1.60
2023-01-26T09:53:35.220Z,1.30
2023-01-26T09:56:04.385Z,1.40
2023-01-26T09:58:39.672Z,1.00
2023-01-26T10:01:22.661Z,1.20
2023-01-26T10:04:11.348Z,1.20
2023-01-26T10:06:39.965Z,1.40
2023-01-26T10:09:35.317Z,1.40
2023-01-26T10:12:30.682Z,1.10
2023-01-26T10:15:08.634Z,0.70
2023-01-26T10:17:43.954Z,0.80
2023-01-26T10:20:15.974Z,0.90
2023-01-26T10:22:47.832Z,0.90
2023-01-26T10:25:20.727Z,0.90
2023-01-26T10:27:49.078Z,0.90
2023-01-26T10:30:19.593Z,0.80
2023-01-26T10:32:52.403Z,1.00
2023-01-26T10:35:23.808Z,0.90
2023-01-26T10:37:52.535Z,1.00
2023-01-26T10:40:21.191Z,0.70
2023-01-26T10:42:58.958Z,1.30
2023-01-26T10:45:33.319Z,1.20
2023-01-26T10:48:24.278Z,0.80
2023-01-26T10:50:54.251Z,0.70
2023-01-26T10:53:26.703Z,0.60
2023-01-26T10:56:01.765Z,0.70
2023-01-26T10:59:08.835Z,0.90
2023-01-26T11:01:55.354Z,0.80
2023-01-26T11:04:25.883Z,0.70
2023-01-26T11:06:54.376Z,0.70
2023-01-26T11:09:30.188Z,0.80
2023-01-26T11:12:04.315Z,0.70
2023-01-26T11:14:33.685Z,0.50
2023-01-26T11:17:22.607Z,0.50
2023-01-26T11:20:13.867Z,0.60
2023-01-26T11:22:54.691Z,0.70
2023-01-26T11:26:08.996Z,0.60
2023-01-26T11:29:08.796Z,0.60
2023-01-26T11:31:57.752Z,0.60
2023-01-26T11:34:45.919Z,0.70
2023-01-26T11:37:28.913Z,0.70
2023-01-26T11:40:05.560Z,0.80
2023-01-26T11:43:31.751Z,0.60
2023-01-26T11:46:30.208Z,0.70
2023-01-26T11:49:27.319Z,0.70
2023-01-26T11:52:37.600Z,0.80
2023-01-26T11:55:50.195Z,0.70
2023-01-26T11:58:36.817Z,0.70
2023-01-26T12:01:19.180Z,0.70
2023-01-26T12:03:52.386Z,0.60
2023-01-26T12:06:42.586Z,0.80
2023-01-26T12:09:20.209Z,0.70
2023-01-26T12:12:03.004Z,0.70
2023-01-26T12:14:58.905Z,0.70
2023-01-26T12:17:46.726Z,0.90
2023-01-26T12:20:39.032Z,0.70
2023-01-26T12:23:27.927Z,1.30
2023-01-26T12:25:58.412Z,0.90
2023-01-26T12:28:36.513Z,0.90
2023-01-26T12:31:15.523Z,1.10
2023-01-26T12:33:45.821Z,1.00
2023-01-26T12:36:52.906Z,1.00
2023-01-26T12:39:48.089Z,0.90
2023-01-26T12:42:52.618Z,1.00
2023-01-26T12:45:38.125Z,1.10
2023-01-26T12:48:25.846Z,1.20
2023-01-26T12:51:04.634Z,1.20
2023-01-26T12:53:45.943Z,1.00
2023-01-26T12:56:37.244Z,1.10
2023-01-26T12:59:46.578Z,1.20
2023-01-26T13:02:42.976Z,1.00
2023-01-26T13:05:25.586Z,1.30
2023-01-26T13:07:54.371Z,0.90
2023-01-26T13:10:28.640Z,1.20
2023-01-26T13:13:21.339Z,1.70
2023-01-26T13:16:16.096Z,1.40
2023-01-26T13:18:55.971Z,1.30
2023-01-26T13:21:28.384Z,1.30
2023-01-26T13:23:57.549Z,1.10
2023-01-26T13:26:35.277Z,1.20
2023-01-26T13:29:40.505Z,1.10
2023-01-26T13:32:15.630Z,1.20
2023-01-26T13:34:59.232Z,1.10
2023-01-26T13:38:12.627Z,1.30
2023-01-26T13:40:50.636Z,1.30
2023-01-26T13:43:38.366Z,1.40
2023-01-26T13:46:25.380Z,1.40
2023-01-26T13:48:55.927Z,1.40
2023-01-26T13:51:30.536Z,1.30
2023-01-26T13:54:15.488Z,1.10
2023-01-26T13:57:00.536Z,1.30
2023-01-26T13:59:30.412Z,1.50
2023-01-26T14:02:00.022Z,1.30
2023-01-26T14:04:31.410Z,1.30
2023-01-26T14:07:10.229Z,1.30
2023-01-26T14:09:48.679Z,1.10
2023-01-26T14:12:28.562Z,1.30
2023-01-26T14:15:01.873Z,1.40
2023-01-26T14:17:47.484Z,1.50
2023-01-26T14:20:30.422Z,1.20
2023-01-26T14:23:17.642Z,1.20
2023-01-26T14:25:56.421Z,1.30
2023-01-26T14:28:30.529Z,1.30
2023-01-26T14:31:17.905Z,1.20
2023-01-26T14:33:51.575Z,1.30
2023-01-26T14:36:21.813Z,1.60
2023-01-26T14:38:53.298Z,1.10
2023-01-26T14:41:34.285Z,1.30
2023-01-26T14:44:03.632Z,1.40
2023-01-26T14:46:51.482Z,1.40
2023-01-26T14:49:30.256Z,1.40
2023-01-26T14:51:58.921Z,1.20
2023-01-26T14:54:35.291Z,1.20
2023-01-26T14:57:09.244Z,1.20
2023-01-26T14:59:40.695Z,1.60
2023-01-26T15:02:21.781Z,1.70
2023-01-26T15:04:59.902Z,1.30
2023-01-26T15:07:59.374Z,1.40
2023-01-26T15:10:38.042Z,1.30
2023-01-26T15:13:20.600Z,1.40
2023-01-26T15:16:15.183Z,1.40
2023-01-26T15:18:43.656Z,1.40
2023-01-26T15:21:21.926Z,1.40
2023-01-26T15:26:31.824Z,1.40
2023-01-26T15:29:03.764Z,1.50
2023-01-26T15:31:41.552Z,1.30
2023-01-26T15:34:30.483Z,1.20
2023-01-26T15:37:00.006Z,1.40
2023-01-26T15:39:29.365Z,1.20
2023-01-26T15:42:22.054Z,1.10
2023-01-26T15:44:50.906Z,1.00
2023-01-26T15:47:19.095Z,1.30
2023-01-26T15:49:48.903Z,1.40
2023-01-26T15:52:18.211Z,1.40
2023-01-26T15:54:46.506Z,1.40
2023-01-26T15:57:15.377Z,1.60
2023-01-26T15:59:44.696Z,1.70
2023-01-26T16:02:19.171Z,1.50
2023-01-26T16:04:48.909Z,1.40
2023-01-26T16:07:18.768Z,1.60
2023-01-26T16:09:47.563Z,1.30
2023-01-26T16:12:33.277Z,1.10
2023-01-26T16:15:01.968Z,1.40
2023-01-26T16:17:30.407Z,1.40
2023-01-26T16:19:58.542Z,1.50
2023-01-26T16:22:27.042Z,1.40
2023-01-26T16:24:55.502Z,1.50
2023-01-26T16:27:23.928Z,1.60
2023-01-26T16:29:52.342Z,1.20
2023-01-26T16:32:29.061Z,1.70
2023-01-26T16:34:58.031Z,1.40
2023-01-26T16:37:26.770Z,1.40
2023-01-26T16:39:55.099Z,1.60
2023-01-26T16:42:23.263Z,1.50
2023-01-26T16:44:52.644Z,1.60
2023-01-26T16:47:20.882Z,1.60
2023-01-26T16:49:49.640Z,1.70
2023-01-26T16:52:17.820Z,1.50
2023-01-26T16:54:46.004Z,1.40
2023-01-26T16:57:14.654Z,1.70
2023-01-26T16:59:43.034Z,1.60
2023-01-26T17:02:26.566Z,1.60
2023-01-26T17:04:54.823Z,1.50
2023-01-26T17:07:23.086Z,1.80
2023-01-26T17:09:51.593Z,1.40
2023-01-26T17:12:19.983Z,1.70
2023-01-26T17:14:49.238Z,2.00
2023-01-26T17:17:17.523Z,2.00
2023-01-26T17:19:45.682Z,2.00
2023-01-26T17:22:14.111Z,2.30
2023-01-26T17:24:42.280Z,1.50
2023-01-26T17:27:10.814Z,2.10
2023-01-26T17:29:39.051Z,2.10
2023-01-26T17:32:07.196Z,2.30
2023-01-26T17:34:35.464Z,1.80
2023-01-26T17:37:04.063Z,1.90
2023-01-26T17:39:33.008Z,1.40
2023-01-26T17:42:01.149Z,1.30
2023-01-26T17:44:30.281Z,1.40
2023-01-26T17:46:58.962Z,2.10
2023-01-26T17:49:27.184Z,2.10
2023-01-26T17:51:55.509Z,2.00
2023-01-26T17:54:23.793Z,2.40
2023-01-26T17:56:51.948Z,2.40
2023-01-26T17:59:20.152Z,2.30
2023-01-26T18:01:48.814Z,2.50
2023-01-26T18:04:19.265Z,2.30
2023-01-26T18:06:47.600Z,2.40
2023-01-26T18:09:16.667Z,3.30
2023-01-26T18:11:45.231Z,2.70
2023-01-26T18:14:13.843Z,2.70
2023-01-26T18:16:42.130Z,2.90
2023-01-26T18:19:10.851Z,2.80
2023-01-26T18:21:39.453Z,2.80
2023-01-26T18:24:07.999Z,2.50
2023-01-26T18:26:38.681Z,2.90
2023-01-26T18:29:07.596Z,3.10
2023-01-26T18:31:39.018Z,2.10
2023-01-26T18:34:07.611Z,2.20
2023-01-26T18:36:36.166Z,2.00
2023-01-26T18:39:07.289Z,2.40
2023-01-26T18:41:35.581Z,2.40
2023-01-26T18:44:04.046Z,1.40
2023-01-26T18:46:32.910Z,2.90
2023-01-26T18:49:01.669Z,3.60
2023-01-26T18:51:33.594Z,3.90
2023-01-26T18:54:03.888Z,6.10
2023-01-26T18:56:32.984Z,7.10
2023-01-26T18:59:01.225Z,7.80
2023-01-26T19:01:29.419Z,9.60
2023-01-26T19:03:58.726Z,9.80
2023-01-26T19:06:28.669Z,9.80
2023-01-26T19:08:59.828Z,9.90
2023-01-26T19:11:30.957Z,6.10
2023-01-26T19:14:00.352Z,10.30
2023-01-26T19:16:29.734Z,6.00
2023-01-26T19:18:58.054Z,9.90
2023-01-26T19:21:27.812Z,10.10
2023-01-26T19:23:58.182Z,11.50
2023-01-26T19:26:28.548Z,5.50
2023-01-26T19:28:58.055Z,4.90
2023-01-26T19:31:27.547Z,8.30
2023-01-26T19:33:58.334Z,4.50
2023-01-26T19:36:29.031Z,4.00
2023-01-26T19:38:57.860Z,4.10
2023-01-26T19:41:26.647Z,6.50
2023-01-26T19:43:55.067Z,7.90
2023-01-26T19:46:23.817Z,4.00
2023-01-26T19:48:52.483Z,4.30
2023-01-26T19:51:23.385Z,4.90
2023-01-26T19:53:55.044Z,4.30
2023-01-26T19:56:26.404Z,4.30
2023-01-26T19:59:00.110Z,6.20
2023-01-26T20:01:30.217Z,5.80
2023-01-26T20:04:01.183Z,6.10
2023-01-26T20:06:32.684Z,3.00
2023-01-26T20:09:02.227Z,2.80
2023-01-26T20:11:30.890Z,3.40
2023-01-26T20:14:01.460Z,3.40
2023-01-26T20:16:30.799Z,5.10
2023-01-26T20:18:59.380Z,3.20
2023-01-26T20:21:28.835Z,3.30
2023-01-26T20:23:57.277Z,3.40
2023-01-26T20:26:26.638Z,3.00
2023-01-26T20:28:58.260Z,3.20
2023-01-26T20:31:27.780Z,3.10
2023-01-26T20:33:56.500Z,3.50
2023-01-26T20:36:27.642Z,3.10
2023-01-26T20:38:55.854Z,3.20
2023-01-26T20:41:29.004Z,2.70
2023-01-26T20:44:04.216Z,2.80
2023-01-26T20:46:38.582Z,2.70
2023-01-26T20:49:08.918Z,3.40
2023-01-26T20:51:38.791Z,2.60
2023-01-26T20:54:07.624Z,3.10
2023-01-26T20:56:36.374Z,3.10
2023-01-26T20:59:06.298Z,2.80
2023-01-26T21:01:35.524Z,3.20
2023-01-26T21:04:05.562Z,4.80
2023-01-26T21:06:34.429Z,2.90
2023-01-26T21:09:04.922Z,3.10
2023-01-26T21:11:34.325Z,3.40
2023-01-26T21:14:02.747Z,2.90
2023-01-26T21:16:33.076Z,2.90
2023-01-26T21:19:01.334Z,3.00
2023-01-26T21:21:29.609Z,3.10
2023-01-26T21:23:58.309Z,2.90
2023-01-26T21:26:27.148Z,3.20
2023-01-26T21:28:58.359Z,2.40
2023-01-26T21:31:29.919Z,3.30
2023-01-26T21:34:00.308Z,5.60
2023-01-26T21:36:30.930Z,2.90
2023-01-26T21:39:01.275Z,3.00
2023-01-26T21:41:32.040Z,3.70
2023-01-26T21:44:03.536Z,3.30
2023-01-26T21:46:33.189Z,3.50
2023-01-26T21:49:01.869Z,3.60
2023-01-26T21:51:31.296Z,2.90
2023-01-26T21:54:00.455Z,3.90
2023-01-26T21:56:29.444Z,3.30
2023-01-26T21:58:57.764Z,3.00
2023-01-26T22:01:26.016Z,3.30
2023-01-26T22:03:59.348Z,3.50
2023-01-26T22:06:28.970Z,4.50
2023-01-26T22:08:57.687Z,3.80
2023-01-26T22:11:28.245Z,3.30
2023-01-26T22:13:57.805Z,3.30
2023-01-26T22:16:26.549Z,3.20
2023-01-26T22:18:54.853Z,3.70
2023-01-26T22:21:23.036Z,3.10
2023-01-26T22:23:51.281Z,3.00
2023-01-26T22:26:22.084Z,3.20
2023-01-26T22:28:55.177Z,3.90
2023-01-26T22:31:27.947Z,2.70
2023-01-26T22:33:57.984Z,2.60
2023-01-26T22:36:27.950Z,4.00
2023-01-26T22:38:56.799Z,2.90
2023-01-26T22:41:27.328Z,3.00
2023-01-26T22:43:58.464Z,3.20
2023-01-26T22:46:29.512Z,3.40
2023-01-26T22:49:00.025Z,3.70
2023-01-26T22:51:30.833Z,3.40
2023-01-26T22:54:00.187Z,3.50
2023-01-26T22:56:29.668Z,3.20
2023-01-26T22:59:00.621Z,4.10
2023-01-26T23:01:32.394Z,3.70
2023-01-26T23:04:01.915Z,4.00
2023-01-26T23:06:30.732Z,4.00
2023-01-26T23:08:58.951Z,4.30
2023-01-26T23:11:29.586Z,3.70
2023-01-26T23:14:00.079Z,4.30
2023-01-26T23:16:29.148Z,3.70
2023-01-26T23:18:59.223Z,3.00
2023-01-26T23:21:28.838Z,3.30
2023-01-26T23:23:58.484Z,3.80
2023-01-26T23:26:27.445Z,3.80
2023-01-26T23:28:55.668Z,4.00
2023-01-26T23:31:24.428Z,3.90
2023-01-26T23:33:52.608Z,4.10
2023-01-26T23:36:20.861Z,4.20
2023-01-26T23:38:49.720Z,4.00
2023-01-26T23:41:18.411Z,3.00
2023-01-26T23:43:47.333Z,3.50
2023-01-26T23:46:15.611Z,3.60
2023-01-26T23:48:43.892Z,3.80
2023-01-26T23:51:12.535Z,3.70
2023-01-26T23:53:41.001Z,3.20
2023-01-26T23:56:14.943Z,3.50
2023-01-26T23:58:44.795Z,3.10
